Terminal Aerodrome Forecast
Issued by NWS Charleston, WV

Home | Current Version | Previous Version | Text Only | Print | Product List | Glossary On
Versions: 1 2 3 4 5 6 7 8 9 10 11 12 13 14 15 16 17 18 19 20 21 22 23
000
FTUS41 KRLX 011100
TAFBKW
TAF
KBKW 011122Z 0112/0212 22004KT P6SM OVC015
     FM011400 26005KT P6SM BKN025
     FM011600 26008KT P6SM BKN035
     FM011800 25009KT P6SM SCT040
     FM020200 22005KT P6SM SCT035
     FM020700 20003KT 6SM BR BKN025=

USA.gov is the U.S. government's official web portal to all federal, state and local government web resources and services.